Terminal Aerodrome Forecast
Issued by NWS Binghamton, NY

Home | Current Version | Previous Version | Text Only | Print | Product List | Glossary On
Versions: 1 2 3 4 5 6 7 8 9 10 11 12 13 14 15 16 17
000
FTUS41 KBGM 181120
TAFSYR
TAF
KSYR 181120Z 1812/1912 12007KT P6SM BKN250 WS020/20040KT
     FM181500 17010G19KT P6SM -RA OVC040
     FM181900 17011G19KT 5SM -RA BR OVC025
     FM182200 17010G20KT 5SM -RA BR OVC015
      TEMPO 1900/1904 2SM RA
     FM191000 26016G27KT 5SM -SHRA OVC010=

USA.gov is the U.S. government's official web portal to all federal, state and local government web resources and services.